Main page
METAR-TAF:

METAR-TAF

Airports :

Belfast City, Northern Ireland

George Best Belfast City Airport

latitude: 54-36N, longitude: 005-53W, elevation: 5 m

Current weather observation

The report was made 5 hours and 24 minutes ago, at 21:20 UTC
Wind 10 kt from the Northwest
Temperature 18°C
Humidity 77%
Pressure 1016 hPa
Visibility 10 km or more
no clouds below 1500 m and no cumulonimbus

METAR: EGAC 232120Z 32010KT CAVOK 18/14 Q1016

Time: 03:44 (02:44 UTC)

Forecast

The report was made 8 hours and 14 minutes ago, at 18:30 UTC
Forecast valid from 23 at 18 UTC to 23 at 21 UTC
Wind 10 kt from the North/Northwest
Visibility 10 km or more
Scattered clouds at a height of 3500 ft

TAF: EGAC 231830Z 2318/2321 34010KT 9999 SCT035

Weather observations and forecasts of more than 4000 airports (METAR and TAF reports).

The available stations are represented by yellow and red dots on the map.

Hover mouse over dot to see the name of the station.

Then click to see weather observations and forecasts.

To change the map : click on the green buttons with a black cross to zoom in, on the green button with a dash to zoom out, or on the green arrows for adjacent maps.


METAR-TAF: